Time;durP1;ratioP1;P1;durP2;ratioP2;P2;SDS_P1;SDS_P2;PMS_P1;PMS_P2;Temp;Humidity;BMP_temperature;BMP_pressure;BME280_temperature;BME280_humidity;BME280_pressure;Samples;Min_cycle;Max_cycle;Signal;HPM_P1;HPM_P2
2022/06/21 00:02:14;;;;;;;9.23;6.00;;;;;;;22.22;84.63;95924.41;5026763;28;20206;-80
2022/06/21 00:04:42;;;;;;;9.27;5.70;;;;;;;22.12;85.38;95921.09;5017336;28;20406;-81
2022/06/21 00:07:14;;;;;;;7.40;6.13;;;;;;;22.01;86.48;95919.75;5037769;28;20213;-80
2022/06/21 00:09:41;;;;;;;9.85;6.20;;;;;;;21.99;87.14;95922.81;5024669;28;20515;-81
2022/06/21 00:12:12;;;;;;;7.00;6.30;;;;;;;22.03;86.76;95923.81;5025939;28;20206;-81
2022/06/21 00:14:39;;;;;;;12.90;6.03;;;;;;;21.99;87.13;95927.50;5021080;28;20199;-80
2022/06/21 00:17:12;;;;;;;8.27;5.60;;;;;;;21.74;87.57;95920.66;5032152;28;20236;-81
2022/06/21 00:19:41;;;;;;;10.82;6.07;;;;;;;21.67;88.40;95915.59;5037551;28;20226;-81
2022/06/21 00:22:12;;;;;;;13.60;5.85;;;;;;;21.67;87.17;95912.88;5040814;28;20199;-81
2022/06/21 00:24:39;;;;;;;12.50;6.25;;;;;;;21.62;85.51;95915.72;5032325;28;20213;-81
2022/06/21 00:27:12;;;;;;;9.55;5.93;;;;;;;21.61;85.00;95927.00;5032414;28;20269;-80
2022/06/21 00:29:40;;;;;;;7.15;6.32;;;;;;;21.59;86.13;95924.59;5025698;28;20207;-80
2022/06/21 00:32:12;;;;;;;10.32;6.75;;;;;;;21.54;87.21;95919.19;5048183;28;20215;-80
2022/06/21 00:34:39;;;;;;;12.10;7.15;;;;;;;21.37;88.37;95927.28;5044647;28;20211;-80
2022/06/21 00:37:13;;;;;;;11.95;7.15;;;;;;;21.39;88.84;95914.88;5027181;28;20262;-80
2022/06/21 00:39:40;;;;;;;9.07;6.13;;;;;;;21.31;88.50;95917.53;5027623;28;20270;-80
2022/06/21 00:42:17;;;;;;;8.45;5.70;;;;;;;21.28;89.73;95921.72;5030626;28;20384;-81
2022/06/21 00:44:49;;;;;;;9.98;6.40;;;;;;;21.18;89.47;95910.94;5026647;28;20341;-81
2022/06/21 00:47:23;;;;;;;8.68;6.32;;;;;;;21.14;89.90;95912.66;5025172;28;20210;-81
2022/06/21 00:49:56;;;;;;;8.20;6.25;;;;;;;21.19;90.50;95909.00;5020240;28;20223;-80
2022/06/21 00:52:28;;;;;;;11.45;5.97;;;;;;;21.19;89.99;95906.25;5044204;28;20206;-81
2022/06/21 00:55:01;;;;;;;9.25;7.03;;;;;;;21.03;90.80;95900.28;5031698;28;20302;-81
2022/06/21 00:57:36;;;;;;;7.82;6.13;;;;;;;20.92;92.40;95890.66;5034258;28;20246;-80
2022/06/21 01:00:25;;;;;;;8.02;6.55;;;;;;;20.95;91.54;95899.06;5044747;28;20249;-81
2022/06/21 01:02:54;;;;;;;8.77;6.03;;;;;;;20.93;91.61;95884.81;5024449;28;20284;-81
2022/06/21 01:05:22;;;;;;;8.43;6.53;;;;;;;20.88;91.36;95873.16;5032391;28;20213;-80
2022/06/21 01:07:49;;;;;;;11.20;7.10;;;;;;;20.75;91.96;95866.59;5027745;28;20298;-80
2022/06/21 01:10:18;;;;;;;8.23;6.47;;;;;;;20.66;92.78;95873.91;5028621;28;20297;-80
2022/06/21 01:12:49;;;;;;;10.15;6.57;;;;;;;20.57;93.62;95883.97;5030559;28;20218;-80
2022/06/21 01:15:21;;;;;;;8.35;6.40;;;;;;;20.67;93.96;95886.50;5032593;28;20416;-80
2022/06/21 01:17:51;;;;;;;12.18;6.70;;;;;;;20.68;93.33;95877.13;5033990;28;20223;-80
2022/06/21 01:20:24;;;;;;;9.23;6.15;;;;;;;20.58;93.69;95860.91;5024473;28;20234;-81
2022/06/21 01:22:58;;;;;;;7.38;6.57;;;;;;;20.49;94.31;95870.97;5032125;28;20363;-80
2022/06/21 01:25:37;;;;;;;9.05;6.40;;;;;;;20.48;95.14;95872.88;5019435;28;20649;-80
2022/06/21 01:28:08;;;;;;;8.70;6.60;;;;;;;20.50;94.42;95867.88;5029293;28;20242;-80
2022/06/21 01:30:35;;;;;;;11.05;6.50;;;;;;;20.46;94.22;95868.81;5028673;28;20292;-80
2022/06/21 01:33:03;;;;;;;9.60;6.50;;;;;;;20.37;94.95;95877.75;5025724;28;20216;-81
2022/06/21 01:35:35;;;;;;;10.20;6.97;;;;;;;20.41;94.49;95879.91;5035260;28;20211;-81
2022/06/21 01:38:06;;;;;;;8.32;6.65;;;;;;;20.52;93.27;95873.06;5031309;28;20276;-81
2022/06/21 01:40:37;;;;;;;9.63;6.88;;;;;;;20.45;92.90;95880.91;5027706;28;20256;-80
2022/06/21 01:43:11;;;;;;;13.95;6.78;;;;;;;20.40;92.92;95879.09;5021267;28;20251;-81
2022/06/21 01:45:43;;;;;;;10.20;6.60;;;;;;;20.45;92.95;95883.63;5044209;28;20297;-81
2022/06/21 01:48:15;;;;;;;7.90;6.53;;;;;;;20.58;92.22;95871.88;5020377;28;20214;-81
2022/06/21 01:50:46;;;;;;;13.18;6.72;;;;;;;20.67;91.00;95878.28;5024476;28;20253;-81
2022/06/21 01:53:17;;;;;;;8.15;5.85;;;;;;;20.75;89.59;95883.03;5028741;28;20217;-81
2022/06/21 01:55:48;;;;;;;7.75;5.93;;;;;;;20.74;89.22;95876.75;5043012;28;20206;-80
2022/06/21 01:58:21;;;;;;;9.50;6.28;;;;;;;20.68;88.29;95860.66;5027845;28;20226;-80
2022/06/21 02:00:53;;;;;;;12.75;6.70;;;;;;;20.81;88.59;95876.31;5028749;28;20249;-80
2022/06/21 02:03:27;;;;;;;8.32;6.70;;;;;;;20.86;89.17;95875.38;5021682;28;20211;-81
2022/06/21 02:05:57;;;;;;;8.30;6.03;;;;;;;20.80;88.35;95871.13;5040118;28;20280;-80
2022/06/21 02:08:31;;;;;;;9.02;6.05;;;;;;;20.72;88.31;95872.66;5021704;28;20213;-81
2022/06/21 02:11:02;;;;;;;9.82;6.13;;;;;;;20.75;87.84;95861.09;5026324;28;20203;-80
2022/06/21 02:13:41;;;;;;;12.43;6.15;;;;;;;20.62;88.58;95864.66;5023278;28;20214;-81
2022/06/21 02:16:12;;;;;;;10.15;7.18;;;;;;;20.51;89.87;95865.97;5036298;28;20236;-81
2022/06/21 02:18:48;;;;;;;9.07;6.50;;;;;;;20.63;90.10;95860.78;5022744;28;20239;-81
2022/06/21 02:21:21;;;;;;;10.68;6.60;;;;;;;20.68;89.95;95860.66;5039634;28;20291;-81
2022/06/21 02:23:53;;;;;;;9.35;6.68;;;;;;;20.59;88.23;95852.34;5031949;28;20235;-81
2022/06/21 02:26:22;;;;;;;8.70;6.13;;;;;;;20.58;88.56;95847.19;5028865;28;20303;-81
2022/06/21 02:28:51;;;;;;;9.18;6.65;;;;;;;20.57;87.61;95849.13;5038049;28;20206;-81
2022/06/21 02:31:19;;;;;;;9.60;6.65;;;;;;;20.40;90.57;95848.91;5022593;28;20202;-80
2022/06/21 02:33:49;;;;;;;10.93;6.45;;;;;;;20.24;91.74;95836.59;5021831;28;20303;-81
2022/06/21 02:36:20;;;;;;;9.45;6.43;;;;;;;20.26;91.44;95846.13;5038660;28;20206;-81
2022/06/21 02:38:50;;;;;;;11.00;6.50;;;;;;;20.25;91.27;95841.75;5031889;28;20226;-81
2022/06/21 02:41:23;;;;;;;9.60;6.20;;;;;;;20.32;89.95;95830.41;5025100;28;20268;-80
2022/06/21 02:43:55;;;;;;;9.88;6.65;;;;;;;20.36;89.54;95829.50;5040179;28;20210;-81
2022/06/21 02:46:27;;;;;;;11.52;6.55;;;;;;;20.24;90.99;95829.19;5032445;28;20203;-80
2022/06/21 02:48:58;;;;;;;9.07;6.20;;;;;;;20.30;90.56;95827.16;5023309;28;20285;-80
2022/06/21 02:51:30;;;;;;;10.70;6.53;;;;;;;20.34;89.30;95826.25;5019900;28;20285;-81
2022/06/21 02:54:04;;;;;;;10.82;7.03;;;;;;;20.38;89.22;95824.53;5024377;28;20268;-81
2022/06/21 02:56:38;;;;;;;12.73;6.63;;;;;;;20.44;89.12;95821.69;5019398;28;20214;-81
2022/06/21 02:59:08;;;;;;;9.70;6.60;;;;;;;20.50;88.56;95823.22;5028191;28;20280;-81
2022/06/21 03:01:41;;;;;;;16.77;6.90;;;;;;;20.55;87.64;95823.91;5044159;28;20272;-81
2022/06/21 03:04:13;;;;;;;10.77;6.80;;;;;;;20.39;87.49;95809.72;5028525;28;20210;-80
2022/06/21 03:06:40;;;;;;;8.25;6.28;;;;;;;20.29;88.89;95817.28;5025733;28;20279;-81
2022/06/21 03:09:11;;;;;;;10.63;6.45;;;;;;;20.30;89.19;95813.44;5015289;28;20206;-81
2022/06/21 03:11:50;;;;;;;10.25;6.28;;;;;;;20.32;89.09;95814.78;5024189;28;20354;-81
2022/06/21 03:14:23;;;;;;;8.77;5.80;;;;;;;20.37;88.26;95806.47;5023220;28;20198;-80
2022/06/21 03:16:51;;;;;;;13.70;6.25;;;;;;;20.39;87.90;95811.63;5025890;28;20260;-81
2022/06/21 03:19:25;;;;;;;11.15;6.35;;;;;;;20.45;87.20;95804.13;5028260;28;20227;-81
2022/06/21 03:21:52;;;;;;;9.77;5.78;;;;;;;20.47;87.78;95807.38;5018789;28;20293;-81
2022/06/21 03:24:23;;;;;;;8.73;6.20;;;;;;;20.47;87.54;95799.16;5026139;28;20202;-81
2022/06/21 03:26:56;;;;;;;10.80;6.68;;;;;;;20.52;86.97;95810.00;5023274;28;20239;-81
2022/06/21 03:29:25;;;;;;;11.10;6.38;;;;;;;20.57;85.68;95807.16;5026270;28;20268;-81
2022/06/21 03:31:54;;;;;;;10.10;6.38;;;;;;;20.62;86.52;95805.13;5028601;28;20294;-81
2022/06/21 03:34:24;;;;;;;10.65;5.90;;;;;;;20.65;86.25;95796.28;5042889;28;20218;-81
2022/06/21 03:36:52;;;;;;;9.02;6.18;;;;;;;20.62;86.78;95791.41;5037049;28;20210;-81
2022/06/21 03:41:42;;;;;;;9.68;6.18;;;;;;;20.55;87.17;95801.97;5025446;28;20303;-81
2022/06/21 03:42:08;;;;;;;10.40;6.13;;;;;;;20.57;88.82;95801.69;5024302;28;20210;-80
2022/06/21 03:44:42;;;;;;;7.80;5.60;;;;;;;20.49;90.03;95802.41;5022115;28;20203;-81
2022/06/21 03:47:15;;;;;;;9.88;6.28;;;;;;;20.42;89.32;95799.22;5019638;28;20215;-81
2022/06/21 03:49:46;;;;;;;8.38;6.43;;;;;;;20.41;90.12;95789.41;5032287;28;20465;-80
2022/06/21 03:52:41;;;;;;;9.55;6.07;;;;;;;20.37;91.16;95783.72;5030170;28;20207;-81
2022/06/21 03:55:16;;;;;;;10.10;6.35;;;;;;;20.41;91.70;95778.44;5032864;28;20198;-81
2022/06/21 03:57:48;;;;;;;10.30;5.82;;;;;;;20.37;89.87;95784.53;5039635;28;20223;-81
2022/06/21 04:00:18;;;;;;;9.55;6.03;;;;;;;20.42;90.54;95791.00;5016076;28;20233;-81
2022/06/21 04:02:51;;;;;;;11.20;5.60;;;;;;;20.48;89.87;95784.31;5028240;28;20206;-81
2022/06/21 04:05:24;;;;;;;10.73;5.75;;;;;;;20.57;90.17;95790.69;5045490;28;20203;-81
2022/06/21 04:07:56;;;;;;;9.68;6.60;;;;;;;20.57;89.35;95794.25;5028209;28;20301;-81
2022/06/21 04:10:30;;;;;;;11.10;6.95;;;;;;;20.52;89.34;95799.03;5028591;28;20266;-81
2022/06/21 04:13:03;;;;;;;13.45;7.22;;;;;;;20.47;90.32;95799.16;5024870;28;20222;-81
2022/06/21 04:15:36;;;;;;;11.80;6.85;;;;;;;20.37;92.01;95800.16;5024891;28;20206;-81
2022/06/21 04:18:11;;;;;;;10.10;5.97;;;;;;;20.27;93.20;95792.91;5041897;28;20242;-81
2022/06/21 04:20:44;;;;;;;11.30;6.60;;;;;;;20.20;93.77;95778.81;5030510;28;20211;-81
2022/06/21 04:23:16;;;;;;;10.75;6.10;;;;;;;20.23;93.91;95778.22;5023988;28;20295;-81
2022/06/21 04:25:57;;;;;;;9.43;6.38;;;;;;;20.24;93.88;95784.50;5031596;28;20290;-81
2022/06/21 04:28:30;;;;;;;8.68;6.63;;;;;;;20.29;93.11;95795.34;5024949;28;20230;-81
2022/06/21 04:31:06;;;;;;;11.25;6.50;;;;;;;20.39;90.76;95782.28;5040040;28;20219;-81
2022/06/21 04:33:36;;;;;;;13.43;6.32;;;;;;;20.45;91.45;95779.44;5050062;28;20237;-81
2022/06/21 04:36:09;;;;;;;12.10;6.50;;;;;;;20.60;90.07;95788.13;5029835;28;20276;-81
2022/06/21 04:38:42;;;;;;;11.20;6.80;;;;;;;20.48;92.24;95789.81;5042742;28;20242;-81
2022/06/21 04:41:15;;;;;;;11.48;6.32;;;;;;;20.36;93.02;95793.03;5027610;28;20226;-81
2022/06/21 04:43:50;;;;;;;13.55;6.88;;;;;;;20.36;93.50;95793.03;5020511;28;20219;-81
2022/06/21 04:46:26;;;;;;;13.27;6.55;;;;;;;20.41;92.28;95795.69;5039015;28;20205;-81
2022/06/21 04:49:02;;;;;;;11.55;6.90;;;;;;;20.48;92.42;95800.78;5021589;28;20215;-80
2022/06/21 04:51:40;;;;;;;13.48;6.60;;;;;;;20.48;95.51;95806.25;5026094;28;20221;-80
2022/06/21 04:54:13;;;;;;;10.00;6.55;;;;;;;20.51;94.33;95800.94;5026205;28;20202;-81
2022/06/21 04:56:50;;;;;;;13.07;8.20;;;;;;;20.59;92.60;95811.19;5043556;28;20241;-80
2022/06/21 04:59:22;;;;;;;12.88;6.75;;;;;;;20.69;92.25;95810.16;5027375;28;20226;-81
2022/06/21 05:01:50;;;;;;;10.05;6.78;;;;;;;20.60;94.28;95812.00;5020787;28;20210;-81
2022/06/21 05:04:20;;;;;;;15.52;7.70;;;;;;;20.62;93.58;95818.81;5027113;28;20202;-81
2022/06/21 05:06:49;;;;;;;12.90;7.70;;;;;;;20.67;92.40;95831.63;5024958;28;20219;-81
2022/06/21 05:09:20;;;;;;;14.20;7.25;;;;;;;20.79;91.84;95829.16;5030106;28;20195;-81
2022/06/21 05:11:54;;;;;;;9.93;7.07;;;;;;;20.74;92.74;95823.81;5032036;28;20221;-81
2022/06/21 05:14:26;;;;;;;8.25;6.93;;;;;;;20.73;92.16;95830.41;5029091;28;20230;-81
2022/06/21 05:16:54;;;;;;;12.70;7.40;;;;;;;20.77;91.73;95815.75;5031697;28;20219;-81
2022/06/21 05:19:25;;;;;;;9.63;6.95;;;;;;;20.93;90.42;95829.94;5029302;28;20234;-81
2022/06/21 05:21:57;;;;;;;11.20;7.50;;;;;;;20.99;91.26;95825.16;5026202;28;20206;-81
2022/06/21 05:24:25;;;;;;;10.10;6.75;;;;;;;21.12;91.50;95836.09;5028292;28;20249;-81
2022/06/21 05:27:02;;;;;;;11.50;7.50;;;;;;;21.21;90.83;95829.91;5028858;28;20242;-81
2022/06/21 05:29:36;;;;;;;10.02;7.88;;;;;;;21.13;90.02;95829.50;5024894;28;20298;-81
2022/06/21 05:32:12;;;;;;;11.63;7.20;;;;;;;20.98;90.43;95827.09;5025938;28;20207;-81
2022/06/21 05:34:44;;;;;;;12.65;7.00;;;;;;;21.05;91.37;95830.22;5034995;28;20301;-81
2022/06/21 05:37:22;;;;;;;10.68;7.00;;;;;;;21.21;91.42;95846.38;5017300;28;20238;-81
2022/06/21 05:39:51;;;;;;;11.95;7.25;;;;;;;21.26;92.45;95838.03;5024346;28;20222;-81
2022/06/21 05:42:21;;;;;;;11.15;8.13;;;;;;;21.19;93.95;95821.16;5022694;28;20277;-81
2022/06/21 05:44:52;;;;;;;13.02;7.43;;;;;;;21.15;91.71;95823.69;5049129;28;20210;-80
2022/06/21 05:47:27;;;;;;;13.32;7.40;;;;;;;21.23;91.60;95830.41;5027245;28;20209;-81
2022/06/21 05:49:56;;;;;;;11.57;6.90;;;;;;;21.32;91.30;95832.09;5035860;28;20220;-81
2022/06/21 05:52:30;;;;;;;9.75;7.65;;;;;;;21.29;93.01;95834.66;5027059;28;20270;-81
2022/06/21 05:55:00;;;;;;;11.73;7.28;;;;;;;21.11;91.28;95831.72;5019254;28;20209;-81
2022/06/21 05:57:36;;;;;;;11.32;7.30;;;;;;;21.16;90.58;95822.56;5020504;28;20303;-81
2022/06/21 06:00:05;;;;;;;11.48;7.38;;;;;;;21.35;89.81;95831.47;5019163;28;20226;-82
2022/06/21 06:02:41;;;;;;;15.43;7.93;;;;;;;21.36;91.17;95824.03;5024831;28;20207;-81
2022/06/21 06:05:15;;;;;;;12.85;7.47;;;;;;;21.39;91.27;95831.66;5017644;28;20313;-80
2022/06/21 06:07:47;;;;;;;10.15;7.53;;;;;;;21.45;93.12;95844.16;5020692;28;20211;-80
2022/06/21 06:10:16;;;;;;;13.70;7.38;;;;;;;21.46;90.95;95834.78;5023735;28;20214;-81
2022/06/21 06:12:47;;;;;;;15.90;7.97;;;;;;;21.56;89.57;95831.81;5022104;28;20206;-81
2022/06/21 06:15:21;;;;;;;12.60;7.85;;;;;;;21.64;88.21;95833.78;5021114;28;20214;-81
2022/06/21 06:17:55;;;;;;;13.68;8.60;;;;;;;21.59;90.06;95828.44;5034643;28;20224;-81
2022/06/21 06:20:28;;;;;;;15.82;9.13;;;;;;;21.52;89.23;95823.34;5028873;28;20233;-81
2022/06/21 06:23:06;;;;;;;13.63;9.30;;;;;;;21.46;89.80;95827.38;5027842;28;20235;-81
2022/06/21 06:25:37;;;;;;;12.13;8.32;;;;;;;21.54;93.45;95823.06;5044350;28;20223;-81
2022/06/21 06:28:17;;;;;;;12.50;7.47;;;;;;;21.56;94.25;95818.06;5018407;28;20538;-82
2022/06/21 06:30:48;;;;;;;17.15;9.20;;;;;;;21.55;92.82;95810.94;5026735;28;20213;-82
2022/06/21 06:33:24;;;;;;;15.57;8.95;;;;;;;21.62;91.43;95813.25;5031551;28;20215;-82
2022/06/21 06:35:54;;;;;;;13.20;8.20;;;;;;;21.77;93.93;95815.63;5022882;28;20206;-82
2022/06/21 06:38:21;;;;;;;11.93;7.97;;;;;;;21.65;94.07;95815.38;5041116;28;20219;-82
2022/06/21 06:40:54;;;;;;;13.07;8.27;;;;;;;21.65;94.49;95815.38;5018516;28;20301;-81
2022/06/21 06:43:27;;;;;;;11.48;8.20;;;;;;;21.69;93.41;95810.88;5019328;28;20243;-82
2022/06/21 06:45:58;;;;;;;13.48;8.30;;;;;;;21.79;92.86;95814.16;5025440;28;20310;-82
2022/06/21 06:48:32;;;;;;;12.85;8.43;;;;;;;21.81;94.20;95825.66;5036012;28;20270;-82
2022/06/21 06:51:33;;;;;;;19.33;9.10;;;;;;;21.88;92.79;95815.03;5027914;28;20206;-81
2022/06/21 06:54:02;;;;;;;20.48;14.15;;;;;;;21.90;91.12;95818.28;5023983;28;20310;-80
2022/06/21 06:56:37;;;;;;;14.77;9.43;;;;;;;22.01;90.68;95826.28;5017577;28;20207;-83
2022/06/21 06:59:13;;;;;;;16.77;9.73;;;;;;;21.85;93.37;95823.91;5025654;28;20228;-83
2022/06/21 07:01:44;;;;;;;19.50;9.82;;;;;;;21.79;90.69;95829.84;5023716;28;20301;-83
2022/06/21 07:04:16;;;;;;;14.10;9.05;;;;;;;21.83;89.92;95817.09;5022708;28;20215;-83
2022/06/21 07:06:47;;;;;;;16.08;9.02;;;;;;;22.01;89.82;95827.09;5026518;28;20215;-84
2022/06/21 07:09:20;;;;;;;14.07;9.30;;;;;;;22.16;90.63;95823.13;5038668;28;20219;-83
2022/06/21 07:11:56;;;;;;;18.30;9.80;;;;;;;22.33;90.77;95834.22;5038181;28;20206;-83
2022/06/21 07:14:25;;;;;;;16.80;8.88;;;;;;;22.33;92.25;95817.69;5027143;28;20269;-83
2022/06/21 07:16:58;;;;;;;12.93;8.70;;;;;;;22.42;90.71;95821.31;5019096;28;20282;-83
2022/06/21 07:19:27;;;;;;;10.55;8.68;;;;;;;22.67;90.20;95839.03;5028619;28;20241;-83
2022/06/21 07:21:54;;;;;;;14.48;8.88;;;;;;;22.78;88.41;95837.63;5016410;28;20310;-83
2022/06/21 07:24:21;;;;;;;9.80;8.63;;;;;;;22.78;88.06;95848.66;5010104;28;20311;-83
2022/06/21 07:26:52;;;;;;;15.55;9.23;;;;;;;22.71;89.49;95845.53;5015595;28;20239;-83
2022/06/21 07:29:26;;;;;;;16.52;9.05;;;;;;;22.92;88.33;95851.25;5015876;28;20210;-83
2022/06/21 07:31:57;;;;;;;10.77;8.80;;;;;;;22.96;87.85;95841.25;5019929;28;20213;-81
2022/06/21 07:34:30;;;;;;;14.65;8.75;;;;;;;23.07;89.07;95842.53;5021133;28;20211;-82
2022/06/21 07:37:05;;;;;;;10.75;8.75;;;;;;;23.22;88.68;95838.50;5031087;28;20215;-81
2022/06/21 07:39:37;;;;;;;10.38;8.20;;;;;;;23.37;89.47;95846.28;5015230;28;20276;-82
2022/06/21 07:42:10;;;;;;;10.68;8.32;;;;;;;23.30;91.19;95852.28;5021181;28;20350;-81
2022/06/21 07:44:45;;;;;;;12.63;8.85;;;;;;;23.33;91.39;95851.63;5022090;28;20300;-81
2022/06/21 07:47:17;;;;;;;12.63;8.45;;;;;;;23.33;92.52;95853.56;5041058;28;20217;-82
2022/06/21 07:49:52;;;;;;;10.77;8.23;;;;;;;23.30;93.33;95851.47;5018132;28;20199;-80
2022/06/21 07:52:25;;;;;;;11.70;9.00;;;;;;;23.32;93.89;95858.25;5035645;28;20217;-81
2022/06/21 07:54:57;;;;;;;11.30;8.73;;;;;;;23.41;91.83;95858.28;5018894;28;20218;-81
2022/06/21 07:57:29;;;;;;;13.27;9.20;;;;;;;23.39;92.32;95863.31;5014691;28;20234;-80
2022/06/21 08:00:06;;;;;;;10.02;8.65;;;;;;;23.36;92.98;95862.00;5039259;28;20238;-81
2022/06/21 08:08:17;;;;;;;9.82;8.10;;;;;;;23.37;92.47;95877.41;5025603;28;20199;-81
2022/06/21 08:10:49;;;;;;;11.35;9.30;;;;;;;23.42;91.60;95870.09;5022016;28;20211;-81
2022/06/21 08:13:18;;;;;;;12.48;8.75;;;;;;;23.51;90.06;95870.94;5013891;28;20237;-81
2022/06/21 08:15:51;;;;;;;12.73;9.10;;;;;;;23.47;89.87;95878.22;5031538;28;20265;-84
2022/06/21 08:18:23;;;;;;;11.10;9.30;;;;;;;23.50;92.47;95877.59;5024870;28;20290;-84
2022/06/21 08:20:58;;;;;;;14.88;8.57;;;;;;;23.54;92.87;95875.81;5033178;28;20249;-85
2022/06/21 08:23:32;;;;;;;12.65;8.82;;;;;;;23.62;91.49;95870.31;5024825;28;20211;-82
2022/06/21 08:26:05;;;;;;;9.88;8.88;;;;;;;23.66;89.66;95870.44;5036476;28;20231;-83
2022/06/21 08:28:38;;;;;;;11.88;8.63;;;;;;;23.75;90.99;95879.53;5041972;28;20211;-82
2022/06/21 08:31:10;;;;;;;11.63;9.25;;;;;;;23.80;90.54;95873.88;5024339;28;20224;-82
2022/06/21 08:33:43;;;;;;;14.55;9.75;;;;;;;24.01;88.60;95887.78;5024445;28;20265;-81
2022/06/21 08:36:17;;;;;;;17.00;9.57;;;;;;;24.03;87.97;95886.31;5012712;28;20207;-82
2022/06/21 08:38:47;;;;;;;11.50;9.00;;;;;;;24.00;87.33;95892.47;5019194;28;20269;-82
2022/06/21 08:41:54;;;;;;;13.77;9.25;;;;;;;23.88;88.36;95886.84;5031273;28;20226;-81
2022/06/21 08:48:06;;;;;;;10.50;8.38;;;;;;;24.11;89.36;95915.84;5019385;28;20263;-82
2022/06/21 08:50:52;;;;;;;11.80;8.98;;;;;;;24.20;88.71;95912.25;4989140;28;20269;-82
2022/06/21 08:53:34;;;;;;;12.07;9.02;;;;;;;24.19;91.68;95910.63;5018753;28;20207;-81
2022/06/21 08:56:12;;;;;;;11.90;9.23;;;;;;;24.16;90.84;95914.84;5021508;28;20234;-82
2022/06/21 08:58:57;;;;;;;15.35;9.25;;;;;;;24.13;88.57;95916.31;5037319;28;20205;-81
2022/06/21 09:01:34;;;;;;;12.35;8.88;;;;;;;24.13;88.17;95913.56;5036300;28;20255;-82
2022/06/21 09:04:26;;;;;;;13.07;8.48;;;;;;;24.21;87.19;95916.66;5027666;28;20214;-81
2022/06/21 09:07:13;;;;;;;10.60;8.32;;;;;;;24.26;85.82;95903.50;5033935;28;20214;-82
2022/06/21 09:10:00;;;;;;;11.07;9.05;;;;;;;24.45;83.54;95887.38;5025879;28;20218;-82
2022/06/21 09:12:38;;;;;;;13.90;8.93;;;;;;;24.51;82.23;95899.03;5022626;28;20262;-81
2022/06/21 09:15:18;;;;;;;12.68;8.50;;;;;;;24.73;81.00;95903.50;5019889;28;20203;-82
2022/06/21 09:17:59;;;;;;;14.73;8.85;;;;;;;24.89;79.37;95890.78;5015922;28;20203;-81
2022/06/21 09:20:38;;;;;;;16.08;8.93;;;;;;;25.12;79.45;95885.78;5010818;28;20227;-82
2022/06/21 09:23:09;;;;;;;11.40;8.45;;;;;;;25.22;77.43;95879.88;5017248;28;20206;-81
2022/06/21 09:25:52;;;;;;;15.52;9.30;;;;;;;25.16;78.98;95892.28;5025052;28;20290;-82
2022/06/21 09:28:29;;;;;;;10.98;8.77;;;;;;;25.12;78.25;95894.06;5038578;28;20337;-82
2022/06/21 09:31:00;;;;;;;12.65;9.00;;;;;;;25.00;78.36;95882.97;5033957;28;20266;-82
2022/06/21 09:33:38;;;;;;;13.38;8.73;;;;;;;24.97;80.53;95889.94;5037232;28;20219;-82
2022/06/21 09:36:13;;;;;;;16.52;9.18;;;;;;;24.92;80.78;95878.28;5019161;28;20216;-82
2022/06/21 09:38:54;;;;;;;11.60;9.43;;;;;;;24.81;82.40;95864.81;5045775;28;20206;-82
2022/06/21 09:41:32;;;;;;;14.93;9.18;;;;;;;24.86;81.91;95870.16;5028440;28;20232;-82
2022/06/21 09:44:11;;;;;;;17.35;9.73;;;;;;;24.56;82.61;95879.56;5012443;28;20204;-82
2022/06/21 09:46:47;;;;;;;12.93;9.45;;;;;;;24.57;81.64;95883.13;5015135;28;20261;-82
2022/06/21 09:49:29;;;;;;;18.55;9.18;;;;;;;24.37;78.30;95882.69;5026302;28;20301;-81
2022/06/21 09:52:03;;;;;;;14.60;8.70;;;;;;;24.24;81.20;95891.19;5034448;28;20238;-82
2022/06/21 09:54:35;;;;;;;16.63;8.75;;;;;;;24.05;81.96;95941.97;5012744;28;20206;-81
2022/06/21 09:57:26;;;;;;;14.23;8.32;;;;;;;23.99;82.29;95934.97;5020294;28;20218;-81
2022/06/21 10:00:03;;;;;;;13.18;8.50;;;;;;;23.90;82.80;95925.94;5017211;28;20241;-81
2022/06/21 10:02:54;;;;;;;10.52;8.60;;;;;;;23.81;87.66;95921.56;5028223;28;20212;-82
2022/06/21 10:05:27;;;;;;;11.00;8.75;;;;;;;23.80;91.26;95904.19;5019482;28;20210;-81
2022/06/21 10:08:18;;;;;;;13.23;10.15;;;;;;;24.05;96.41;95911.63;5026750;28;20214;-82
2022/06/21 10:10:56;;;;;;;13.02;9.20;;;;;;;24.30;94.82;95889.88;5012755;28;20239;-82
2022/06/21 10:13:53;;;;;;;14.23;9.10;;;;;;;24.63;92.87;95876.28;5026470;28;20214;-82
2022/06/21 10:16:54;;;;;;;10.65;7.80;;;;;;;24.87;80.97;95862.66;5036460;28;20234;-82
2022/06/21 10:19:34;;;;;;;11.77;8.38;;;;;;;25.15;80.59;95849.22;5031349;28;20203;-82
2022/06/21 10:22:25;;;;;;;13.60;8.32;;;;;;;25.37;82.15;95864.66;5023208;28;20233;-82
2022/06/21 10:25:15;;;;;;;15.48;8.48;;;;;;;25.12;77.59;95867.25;5019488;28;20220;-82
2022/06/21 10:28:12;;;;;;;18.15;9.20;;;;;;;25.03;78.80;95873.97;5031056;28;20329;-83
2022/06/21 10:31:11;;;;;;;12.70;8.40;;;;;;;25.56;76.11;95870.53;5014027;28;20296;-82
2022/06/21 10:34:11;;;;;;;12.45;8.55;;;;;;;25.87;75.23;95881.19;5022480;28;20214;-82
2022/06/21 10:37:13;;;;;;;15.18;7.90;;;;;;;26.09;71.74;95869.75;5012308;28;20210;-81
2022/06/21 10:40:23;;;;;;;11.98;8.05;;;;;;;26.55;71.52;95848.41;5030427;28;20221;-82
2022/06/21 10:43:29;;;;;;;11.50;7.70;;;;;;;26.89;69.22;95839.66;5014681;28;20210;-82
2022/06/21 10:46:00;;;;;;;14.05;8.05;;;;;;;27.21;68.16;95845.47;4981538;28;20298;-82
2022/06/21 10:48:56;;;;;;;12.88;7.47;;;;;;;27.50;67.34;95839.59;5015954;28;20240;-82
2022/06/21 10:51:37;;;;;;;13.82;7.75;;;;;;;27.79;65.79;95824.63;5029373;28;20282;-82
2022/06/21 10:54:21;;;;;;;26.35;11.93;;;;;;;27.95;64.81;95813.59;5025115;28;20220;-82
2022/06/21 10:57:12;;;;;;;13.48;9.35;;;;;;;28.23;62.84;95808.84;5036094;28;20254;-82
2022/06/21 11:03:10;;;;;;;10.63;7.80;;;;;;;28.61;58.77;95786.00;5035207;28;20297;-83
2022/06/21 11:05:47;;;;;;;18.92;8.85;;;;;;;28.72;59.46;95781.50;5020325;28;20216;-82
2022/06/21 11:08:25;;;;;;;11.43;8.07;;;;;;;28.76;61.30;95773.25;5021114;28;20199;-83
2022/06/21 11:10:59;;;;;;;10.48;7.97;;;;;;;28.64;61.29;95763.06;5019005;28;20260;-83
2022/06/21 11:13:32;;;;;;;12.35;8.23;;;;;;;28.54;61.34;95767.19;5012904;28;20214;-83
2022/06/21 11:16:06;;;;;;;13.63;8.30;;;;;;;28.65;59.72;95755.53;5025585;28;20237;-82
2022/06/21 11:18:49;;;;;;;14.07;8.63;;;;;;;28.69;60.39;95764.75;5038016;28;20221;-82
2022/06/21 11:21:35;;;;;;;12.45;8.85;;;;;;;28.52;62.53;95755.63;5033323;28;20233;-82
2022/06/21 11:24:16;;;;;;;12.32;9.30;;;;;;;28.47;64.66;95746.75;5037748;28;20244;-82
2022/06/21 11:26:54;;;;;;;14.98;9.68;;;;;;;28.59;65.23;95747.44;5014835;28;20243;-81
2022/06/21 11:29:35;;;;;;;12.05;8.95;;;;;;;28.60;67.43;95748.25;5033837;28;20330;-82
2022/06/21 11:32:14;;;;;;;12.40;8.75;;;;;;;28.60;66.20;95739.94;5019830;28;20209;-82
2022/06/21 11:34:50;;;;;;;11.75;8.52;;;;;;;28.66;63.25;95732.94;5026467;28;20212;-82
2022/06/21 11:37:32;;;;;;;10.40;8.13;;;;;;;28.87;62.77;95739.03;5018694;28;20198;-83
2022/06/21 11:40:06;;;;;;;9.68;7.57;;;;;;;29.00;59.65;95739.72;5035668;28;20275;-83
2022/06/21 11:42:40;;;;;;;14.55;9.00;;;;;;;28.90;61.49;95743.06;5020393;28;20234;-82
2022/06/21 11:45:24;;;;;;;13.27;8.70;;;;;;;28.76;62.25;95749.06;5015316;28;20210;-82
2022/06/21 11:48:21;;;;;;;13.65;9.32;;;;;;;28.45;67.81;95744.34;5015264;28;20298;-82
2022/06/21 11:51:01;;;;;;;13.55;10.35;;;;;;;28.34;69.95;95742.44;5024963;28;20291;-81
2022/06/21 11:53:54;;;;;;;13.50;9.60;;;;;;;28.32;70.46;95734.50;5018232;28;20238;-82
2022/06/21 11:56:26;;;;;;;13.10;9.77;;;;;;;28.33;71.20;95735.31;5011802;28;20274;-83
2022/06/21 11:59:03;;;;;;;15.80;9.63;;;;;;;28.24;71.34;95727.16;5015896;28;20290;-82
2022/06/21 12:01:35;;;;;;;12.35;9.27;;;;;;;28.31;69.67;95732.91;5023852;28;20230;-82
2022/06/21 12:04:20;;;;;;;15.05;9.13;;;;;;;28.28;68.67;95733.59;5021039;28;20211;-82
2022/06/21 12:06:54;;;;;;;17.80;8.32;;;;;;;28.30;66.45;95719.38;5022655;28;20343;-83
2022/06/21 12:09:28;;;;;;;14.77;8.05;;;;;;;28.52;62.35;95716.75;5029320;28;20264;-82
2022/06/21 12:12:13;;;;;;;9.75;7.53;;;;;;;28.59;62.25;95711.34;5045697;28;20209;-82
2022/06/21 12:15:04;;;;;;;8.25;7.05;;;;;;;28.67;60.31;95703.97;5025330;28;20218;-83
2022/06/21 12:17:45;;;;;;;13.25;7.68;;;;;;;29.09;57.48;95704.19;5021584;28;20211;-83